createdAt,value
2023-12-27T00:01:59.158Z,4.50
2023-12-27T00:04:27.850Z,3.05
2023-12-27T00:06:58.218Z,3.15
2023-12-27T00:09:24.848Z,3.28
2023-12-27T00:11:51.576Z,3.95
2023-12-27T00:14:18.052Z,3.85
2023-12-27T00:16:44.488Z,5.28
2023-12-27T00:19:11.219Z,3.88
2023-12-27T00:21:37.887Z,4.85
2023-12-27T00:24:04.583Z,4.30
2023-12-27T00:26:31.088Z,3.95
2023-12-27T00:28:57.566Z,4.20
2023-12-27T00:31:24.389Z,4.82
2023-12-27T00:33:51.316Z,3.65
2023-12-27T00:36:30.167Z,3.58
2023-12-27T00:38:58.145Z,4.75
2023-12-27T00:41:27.064Z,3.92
2023-12-27T00:43:53.481Z,4.70
2023-12-27T00:46:20.104Z,4.00
2023-12-27T00:48:46.631Z,4.70
2023-12-27T00:51:20.865Z,4.57
2023-12-27T00:53:47.593Z,4.50
2023-12-27T00:56:14.126Z,4.28
2023-12-27T00:58:40.617Z,4.43
2023-12-27T01:01:07.300Z,3.60
2023-12-27T01:03:33.815Z,3.95
2023-12-27T01:06:02.602Z,3.42
2023-12-27T01:08:29.106Z,4.15
2023-12-27T01:10:55.771Z,3.45
2023-12-27T01:13:22.256Z,3.20
2023-12-27T01:15:48.689Z,3.65
2023-12-27T01:18:17.816Z,3.38
2023-12-27T01:20:44.385Z,3.45
2023-12-27T01:23:10.818Z,3.20
2023-12-27T01:25:41.858Z,3.22
2023-12-27T01:28:08.406Z,3.55
2023-12-27T01:30:35.006Z,3.85
2023-12-27T01:33:02.746Z,3.55
2023-12-27T01:35:29.486Z,2.88
2023-12-27T01:37:56.499Z,3.38
2023-12-27T01:40:23.015Z,3.22
2023-12-27T01:42:49.473Z,2.67
2023-12-27T01:45:16.019Z,3.38
2023-12-27T01:47:43.483Z,3.05
2023-12-27T01:50:10.715Z,3.25
2023-12-27T01:52:42.221Z,3.05
2023-12-27T01:55:10.645Z,3.13
2023-12-27T01:57:41.558Z,3.20
2023-12-27T02:00:09.328Z,2.50
2023-12-27T02:02:38.734Z,2.85
2023-12-27T02:05:08.665Z,3.03
2023-12-27T02:07:37.027Z,3.03
2023-12-27T02:10:04.682Z,2.70
2023-12-27T02:12:32.235Z,3.15
2023-12-27T02:14:59.134Z,3.75
2023-12-27T02:17:29.651Z,3.38
2023-12-27T02:19:56.943Z,3.15
2023-12-27T02:22:28.408Z,3.33
2023-12-27T02:24:55.204Z,3.13
2023-12-27T02:27:22.606Z,3.75
2023-12-27T02:29:49.370Z,3.20
2023-12-27T02:32:16.036Z,3.10
2023-12-27T02:34:44.794Z,3.38
2023-12-27T02:37:13.882Z,3.10
2023-12-27T02:39:40.397Z,3.22
2023-12-27T02:42:09.536Z,2.97
2023-12-27T02:44:36.220Z,2.92
2023-12-27T02:47:08.463Z,4.65
2023-12-27T02:52:01.651Z,3.78
2023-12-27T02:54:28.105Z,3.58
2023-12-27T02:56:54.989Z,4.15
2023-12-27T02:59:21.556Z,3.72
2023-12-27T03:01:48.079Z,2.78
2023-12-27T03:04:16.587Z,3.03
2023-12-27T03:06:43.121Z,4.65
2023-12-27T03:09:09.814Z,4.03
2023-12-27T03:11:36.276Z,3.03
2023-12-27T03:14:03.222Z,4.30
2023-12-27T03:16:29.924Z,3.80
2023-12-27T03:18:57.472Z,3.55
2023-12-27T03:21:26.414Z,3.20
2023-12-27T03:23:53.008Z,4.43
2023-12-27T03:26:19.465Z,3.15
2023-12-27T03:28:45.924Z,3.65
2023-12-27T03:31:13.584Z,3.90
2023-12-27T03:33:40.425Z,3.50
2023-12-27T03:36:07.463Z,3.60
2023-12-27T03:38:33.941Z,3.35
2023-12-27T03:41:00.581Z,3.45
2023-12-27T03:43:27.053Z,2.83
2023-12-27T03:45:55.541Z,3.50
2023-12-27T03:48:22.587Z,3.30
2023-12-27T03:50:49.207Z,3.28
2023-12-27T03:53:15.848Z,3.15
2023-12-27T03:55:45.351Z,3.25
2023-12-27T03:58:11.890Z,3.08
2023-12-27T04:00:40.801Z,3.45
2023-12-27T04:03:07.484Z,2.92
2023-12-27T04:05:36.199Z,3.08
2023-12-27T04:08:02.863Z,2.78
2023-12-27T04:10:33.069Z,3.00
2023-12-27T04:13:02.543Z,3.00
2023-12-27T04:15:29.292Z,2.55
2023-12-27T04:17:56.252Z,3.58
2023-12-27T04:20:22.914Z,3.30
2023-12-27T04:22:51.778Z,2.88
2023-12-27T04:25:18.715Z,3.28
2023-12-27T04:27:45.185Z,3.17
2023-12-27T04:30:13.021Z,2.88
2023-12-27T04:32:39.634Z,3.55
2023-12-27T04:35:06.683Z,3.20
2023-12-27T04:37:33.273Z,3.15
2023-12-27T04:39:59.688Z,3.17
2023-12-27T04:42:26.159Z,3.10
2023-12-27T04:44:52.640Z,2.58
2023-12-27T04:47:21.177Z,3.05
2023-12-27T04:49:47.850Z,2.95
2023-12-27T04:52:15.934Z,3.45
2023-12-27T04:54:42.579Z,2.78
2023-12-27T04:57:09.141Z,2.38
2023-12-27T04:59:35.696Z,3.03
2023-12-27T05:02:04.407Z,2.65
2023-12-27T05:04:30.915Z,2.65
2023-12-27T05:06:59.568Z,2.38
2023-12-27T05:09:26.109Z,2.80
2023-12-27T05:11:54.781Z,2.88
2023-12-27T05:14:23.381Z,3.05
2023-12-27T05:16:50.285Z,3.20
2023-12-27T05:19:21.631Z,3.17
2023-12-27T05:21:48.212Z,2.80
2023-12-27T05:24:14.865Z,3.00
2023-12-27T05:26:44.359Z,2.40
2023-12-27T05:29:11.982Z,2.47
2023-12-27T05:31:38.546Z,2.90
2023-12-27T05:34:05.261Z,2.85
2023-12-27T05:36:31.928Z,2.63
2023-12-27T05:38:58.503Z,2.53
2023-12-27T05:41:27.072Z,2.60
2023-12-27T05:43:57.165Z,3.10
2023-12-27T05:46:25.978Z,3.95
2023-12-27T05:48:52.878Z,2.80
2023-12-27T05:51:19.485Z,2.47
2023-12-27T05:53:45.979Z,3.28
2023-12-27T05:56:12.464Z,3.15
2023-12-27T05:58:41.287Z,3.00
2023-12-27T06:01:10.685Z,4.38
2023-12-27T06:03:37.273Z,5.03
2023-12-27T06:06:06.433Z,5.75
2023-12-27T06:08:33.020Z,4.40
2023-12-27T06:11:00.150Z,6.43
2023-12-27T06:13:26.686Z,5.93
2023-12-27T06:15:53.823Z,7.13
2023-12-27T06:18:20.860Z,4.10
2023-12-27T06:20:47.477Z,4.25
2023-12-27T06:23:16.316Z,2.80
2023-12-27T06:25:42.909Z,2.75
2023-12-27T06:28:09.350Z,2.63
2023-12-27T06:30:35.912Z,2.10
2023-12-27T06:33:02.753Z,2.13
2023-12-27T06:35:29.334Z,3.30
2023-12-27T06:37:56.092Z,2.65
2023-12-27T06:40:25.213Z,2.75
2023-12-27T06:42:56.721Z,2.13
2023-12-27T06:45:23.205Z,2.23
2023-12-27T06:47:50.418Z,2.03
2023-12-27T06:50:19.340Z,1.63
2023-12-27T06:52:46.033Z,1.55
2023-12-27T06:55:12.635Z,2.20
2023-12-27T06:57:41.079Z,1.83
2023-12-27T07:00:08.479Z,2.03
2023-12-27T07:02:40.087Z,1.50
2023-12-27T07:05:08.099Z,2.08
2023-12-27T07:07:36.037Z,1.98
2023-12-27T07:10:02.697Z,2.00
2023-12-27T07:12:29.601Z,1.95
2023-12-27T07:14:56.512Z,2.13
2023-12-27T07:17:25.478Z,2.17
2023-12-27T07:19:52.191Z,2.20
2023-12-27T07:22:18.703Z,2.85
2023-12-27T07:24:45.296Z,2.72
2023-12-27T07:27:11.901Z,3.17
2023-12-27T07:29:38.425Z,3.10
2023-12-27T07:32:06.325Z,2.72
2023-12-27T07:34:33.952Z,3.72
2023-12-27T07:37:00.823Z,3.50
2023-12-27T07:39:27.566Z,3.78
2023-12-27T07:41:54.140Z,3.63
2023-12-27T07:44:21.921Z,3.17
2023-12-27T07:46:48.476Z,3.25
2023-12-27T07:49:15.107Z,3.17
2023-12-27T07:51:41.829Z,3.47
2023-12-27T07:54:08.686Z,2.97
2023-12-27T07:56:36.396Z,3.80
2023-12-27T07:59:05.926Z,2.30
2023-12-27T08:01:32.982Z,2.95
2023-12-27T08:04:02.603Z,3.70
2023-12-27T08:06:32.049Z,2.95
2023-12-27T08:08:58.958Z,2.22
2023-12-27T08:11:25.621Z,2.72
2023-12-27T08:13:52.422Z,2.50
2023-12-27T08:16:19.048Z,2.67
2023-12-27T08:18:45.600Z,1.58
2023-12-27T08:21:14.967Z,2.20
2023-12-27T08:23:41.465Z,3.03
2023-12-27T08:26:08.766Z,2.75
2023-12-27T08:28:35.506Z,3.00
2023-12-27T08:31:02.612Z,2.15
2023-12-27T08:33:31.467Z,1.88
2023-12-27T08:36:00.496Z,2.22
2023-12-27T08:38:27.102Z,2.00
2023-12-27T08:40:55.901Z,3.25
2023-12-27T08:43:22.807Z,3.47
2023-12-27T08:45:49.497Z,3.20
2023-12-27T08:48:18.724Z,3.67
2023-12-27T08:50:45.951Z,3.75
2023-12-27T08:53:12.876Z,3.58
2023-12-27T08:55:39.565Z,3.80
2023-12-27T08:58:06.773Z,3.35
2023-12-27T09:00:34.138Z,4.10
2023-12-27T09:03:00.811Z,3.33
2023-12-27T09:05:27.381Z,3.63
2023-12-27T09:07:53.917Z,3.22
2023-12-27T09:10:20.401Z,3.40
2023-12-27T09:12:49.039Z,4.05
2023-12-27T09:15:15.731Z,3.33
2023-12-27T09:17:42.521Z,3.72
2023-12-27T09:20:10.432Z,3.72
2023-12-27T09:22:37.515Z,4.13
2023-12-27T09:25:07.069Z,3.53
2023-12-27T09:27:35.869Z,3.80
2023-12-27T09:30:02.355Z,4.38
2023-12-27T09:32:31.471Z,3.65
2023-12-27T09:35:00.563Z,3.88
2023-12-27T09:37:27.120Z,4.25
2023-12-27T09:39:53.559Z,3.50
2023-12-27T09:42:20.388Z,3.97
2023-12-27T09:44:49.198Z,2.97
2023-12-27T09:47:17.020Z,2.53
2023-12-27T09:49:44.074Z,2.60
2023-12-27T09:52:13.164Z,2.33
2023-12-27T09:54:39.858Z,2.08
2023-12-27T09:57:08.186Z,1.98
2023-12-27T09:59:40.517Z,2.78
2023-12-27T10:02:14.873Z,2.28
2023-12-27T10:04:49.125Z,1.67
2023-12-27T10:07:18.220Z,2.03
2023-12-27T10:09:49.848Z,2.25
2023-12-27T10:12:16.546Z,2.25
2023-12-27T10:14:43.806Z,1.85
2023-12-27T10:17:10.294Z,1.50
2023-12-27T10:19:38.650Z,1.83
2023-12-27T10:22:05.429Z,1.77
2023-12-27T10:24:32.468Z,1.80
2023-12-27T10:26:59.267Z,2.22
2023-12-27T10:29:51.751Z,1.50
2023-12-27T10:32:18.802Z,2.05
2023-12-27T10:34:49.438Z,1.67
2023-12-27T10:37:17.197Z,1.48
2023-12-27T10:39:47.593Z,2.13
2023-12-27T10:42:17.587Z,2.08
2023-12-27T10:44:47.899Z,1.88
2023-12-27T10:47:18.713Z,2.15
2023-12-27T10:49:49.329Z,1.50
2023-12-27T10:52:17.261Z,1.88
2023-12-27T10:54:47.301Z,1.67
2023-12-27T10:57:18.604Z,1.20
2023-12-27T10:59:48.541Z,1.93
2023-12-27T11:02:16.027Z,1.90
2023-12-27T11:04:44.116Z,1.67
2023-12-27T11:07:12.631Z,1.25
2023-12-27T11:09:43.972Z,1.30
2023-12-27T11:12:11.304Z,1.05
2023-12-27T11:14:41.298Z,1.48
2023-12-27T11:17:09.360Z,1.60
2023-12-27T11:19:37.024Z,1.00
2023-12-27T11:22:03.642Z,1.55
2023-12-27T11:24:30.199Z,1.67
2023-12-27T11:27:07.693Z,1.40
2023-12-27T11:29:35.477Z,1.58
2023-12-27T11:32:02.075Z,2.10
2023-12-27T11:34:29.021Z,1.98
2023-12-27T11:36:55.865Z,2.05
2023-12-27T11:39:29.282Z,1.60
2023-12-27T11:41:56.005Z,1.35
2023-12-27T11:44:22.533Z,1.90
2023-12-27T11:46:49.102Z,1.10
2023-12-27T11:49:22.486Z,1.35
2023-12-27T11:51:49.234Z,1.17
2023-12-27T11:54:23.254Z,1.50
2023-12-27T11:56:51.690Z,1.10
2023-12-27T11:59:18.284Z,1.63
2023-12-27T12:01:45.182Z,0.95
2023-12-27T12:04:38.479Z,0.88
2023-12-27T12:07:37.920Z,1.13
2023-12-27T12:10:04.953Z,1.17
2023-12-27T12:12:32.281Z,1.00
2023-12-27T12:14:59.615Z,1.20
2023-12-27T12:17:29.506Z,1.13
2023-12-27T12:19:56.884Z,1.25
2023-12-27T12:22:23.612Z,1.45
2023-12-27T12:24:50.254Z,0.90
2023-12-27T12:27:22.713Z,1.02
2023-12-27T12:29:51.597Z,1.27
2023-12-27T12:32:18.045Z,1.42
2023-12-27T12:34:44.621Z,1.15
2023-12-27T12:37:12.206Z,1.65
2023-12-27T12:39:39.826Z,1.58
2023-12-27T12:42:08.378Z,1.20
2023-12-27T12:44:35.107Z,1.40
2023-12-27T12:47:02.057Z,1.52
2023-12-27T12:49:30.760Z,1.80
2023-12-27T12:52:08.559Z,1.40
2023-12-27T12:54:35.796Z,1.45
2023-12-27T12:57:02.884Z,1.90
2023-12-27T12:59:30.931Z,1.42
2023-12-27T13:01:57.611Z,1.70
2023-12-27T13:04:25.326Z,1.20
2023-12-27T13:07:05.017Z,1.45
2023-12-27T13:09:32.140Z,1.38
2023-12-27T13:11:58.972Z,1.10
2023-12-27T13:14:25.888Z,0.95
2023-12-27T13:16:52.350Z,1.65
2023-12-27T13:19:19.157Z,1.20
2023-12-27T13:21:45.888Z,1.48
2023-12-27T13:24:12.755Z,1.30
2023-12-27T13:26:39.485Z,1.55
2023-12-27T13:29:09.824Z,1.27
2023-12-27T13:31:38.749Z,1.20
2023-12-27T13:34:08.487Z,1.30
2023-12-27T13:36:35.207Z,1.50
2023-12-27T13:39:01.658Z,1.25
2023-12-27T13:41:28.259Z,1.02
2023-12-27T13:43:54.737Z,1.45
2023-12-27T13:46:21.468Z,1.40
2023-12-27T13:48:48.065Z,1.35
2023-12-27T13:51:15.562Z,1.65
2023-12-27T13:53:42.110Z,1.15
2023-12-27T13:56:08.933Z,1.73
2023-12-27T13:58:36.658Z,2.67
2023-12-27T14:01:03.786Z,1.60
2023-12-27T14:03:31.825Z,2.00
2023-12-27T14:05:59.373Z,1.88
2023-12-27T14:08:28.351Z,2.30
2023-12-27T14:10:56.281Z,2.17
2023-12-27T14:13:22.709Z,2.55
2023-12-27T14:15:49.333Z,1.92
2023-12-27T14:18:16.286Z,2.55
2023-12-27T14:20:43.824Z,2.10
2023-12-27T14:23:10.541Z,1.95
2023-12-27T14:25:37.012Z,2.38
2023-12-27T14:28:04.112Z,1.83
2023-12-27T14:30:33.126Z,2.00
2023-12-27T14:33:00.304Z,1.30
2023-12-27T14:35:27.256Z,1.67
2023-12-27T14:37:55.348Z,2.20
2023-12-27T14:40:22.418Z,1.10
2023-12-27T14:42:51.815Z,1.67
2023-12-27T14:45:18.837Z,2.03
2023-12-27T14:47:50.497Z,1.80
2023-12-27T14:50:18.956Z,2.28
2023-12-27T14:52:45.608Z,1.90
2023-12-27T14:55:12.159Z,1.65
2023-12-27T14:57:39.045Z,1.60
2023-12-27T15:00:07.536Z,1.40
2023-12-27T15:02:38.277Z,1.75
2023-12-27T15:05:05.640Z,1.70
2023-12-27T15:07:32.314Z,1.40
2023-12-27T15:10:04.427Z,3.15
2023-12-27T15:12:31.731Z,3.17
2023-12-27T15:14:58.270Z,3.78
2023-12-27T15:17:27.490Z,2.65
2023-12-27T15:19:59.358Z,3.08
2023-12-27T15:22:31.740Z,2.90
2023-12-27T15:24:58.887Z,2.80
2023-12-27T15:27:26.578Z,3.17
2023-12-27T15:29:58.542Z,2.28
2023-12-27T15:32:25.795Z,2.30
2023-12-27T15:34:52.584Z,2.08
2023-12-27T15:37:21.748Z,2.35
2023-12-27T15:39:49.458Z,1.83
2023-12-27T15:42:18.519Z,1.83
2023-12-27T15:44:45.089Z,2.10
2023-12-27T15:47:13.303Z,1.80
2023-12-27T15:49:41.096Z,1.83
2023-12-27T15:52:08.177Z,1.35
2023-12-27T15:54:36.793Z,1.92
2023-12-27T15:57:05.325Z,1.95
2023-12-27T15:59:34.169Z,1.45
2023-12-27T16:02:00.990Z,1.85
2023-12-27T16:04:27.586Z,2.05
2023-12-27T16:06:56.868Z,2.40
2023-12-27T16:09:23.606Z,2.10
2023-12-27T16:11:51.667Z,1.88
2023-12-27T16:14:18.541Z,2.28
2023-12-27T16:16:45.526Z,2.80
2023-12-27T16:19:14.993Z,2.40
2023-12-27T16:21:43.194Z,3.13
2023-12-27T16:24:11.202Z,3.92
2023-12-27T16:26:38.040Z,4.18
2023-12-27T16:29:07.309Z,3.85
2023-12-27T16:31:34.477Z,4.60
2023-12-27T16:34:02.956Z,4.00
2023-12-27T16:36:31.312Z,3.40
2023-12-27T16:38:58.385Z,4.63
2023-12-27T16:41:25.658Z,3.85
2023-12-27T16:43:58.716Z,4.68
2023-12-27T16:46:28.742Z,4.80
2023-12-27T16:48:57.464Z,4.85
2023-12-27T16:51:24.647Z,3.90
2023-12-27T16:53:51.736Z,4.20
2023-12-27T16:56:19.292Z,4.25
2023-12-27T16:58:47.887Z,3.92
2023-12-27T17:01:19.264Z,4.70
2023-12-27T17:03:46.296Z,4.10
2023-12-27T17:06:13.264Z,4.07
2023-12-27T17:08:40.590Z,4.70
2023-12-27T17:11:07.540Z,3.58
2023-12-27T17:13:38.971Z,3.50
2023-12-27T17:16:11.173Z,3.33
2023-12-27T17:21:08.326Z,5.63
2023-12-27T17:23:36.941Z,7.00
2023-12-27T17:26:07.610Z,11.73
2023-12-27T17:28:34.606Z,18.70
2023-12-27T17:31:02.547Z,6.43
2023-12-27T17:33:29.559Z,5.75
2023-12-27T17:35:59.003Z,4.20
2023-12-27T17:38:25.711Z,4.13
2023-12-27T17:40:52.256Z,4.45
2023-12-27T17:43:18.944Z,4.68
2023-12-27T17:45:45.933Z,5.10
2023-12-27T17:48:12.784Z,6.57
2023-12-27T17:50:44.342Z,7.88
2023-12-27T17:53:14.222Z,7.80
2023-12-27T17:55:41.122Z,6.43
2023-12-27T17:58:11.063Z,6.35
2023-12-27T18:00:38.192Z,6.57
2023-12-27T18:03:09.844Z,5.55
2023-12-27T18:05:36.592Z,4.97
2023-12-27T18:08:03.684Z,4.57
2023-12-27T18:10:31.596Z,4.95
2023-12-27T18:12:58.571Z,4.05
2023-12-27T18:15:25.964Z,3.88
2023-12-27T18:17:52.747Z,3.20
2023-12-27T18:20:19.471Z,3.83
2023-12-27T18:22:46.453Z,3.72
2023-12-27T18:25:13.315Z,3.78
2023-12-27T18:27:39.933Z,3.20
2023-12-27T18:30:10.974Z,4.07
2023-12-27T18:32:38.381Z,3.50
2023-12-27T18:35:05.607Z,3.33
2023-12-27T18:37:32.700Z,3.67
2023-12-27T18:39:59.301Z,4.35
2023-12-27T18:42:28.456Z,4.10
2023-12-27T18:44:55.107Z,4.10
2023-12-27T18:47:26.684Z,3.40
2023-12-27T18:49:53.300Z,15.97
2023-12-27T18:52:19.950Z,5.40
2023-12-27T18:54:46.726Z,6.75
2023-12-27T18:57:14.296Z,5.10
2023-12-27T18:59:41.098Z,4.28
2023-12-27T19:02:07.570Z,4.72
2023-12-27T19:04:38.502Z,4.30
2023-12-27T19:07:08.985Z,4.55
2023-12-27T19:09:36.246Z,4.32
2023-12-27T19:12:04.542Z,4.68
2023-12-27T19:14:31.485Z,4.60
2023-12-27T19:17:00.334Z,4.70
2023-12-27T19:19:27.102Z,4.50
2023-12-27T19:21:57.526Z,6.28
2023-12-27T19:24:24.221Z,6.15
2023-12-27T19:26:50.988Z,6.30
2023-12-27T19:29:20.188Z,7.32
2023-12-27T19:31:46.731Z,8.70
2023-12-27T19:34:14.112Z,8.73
2023-12-27T19:36:40.993Z,8.77
2023-12-27T19:39:08.042Z,5.47
2023-12-27T19:41:34.977Z,4.07
2023-12-27T19:44:04.035Z,4.80
2023-12-27T19:46:35.796Z,4.53
2023-12-27T19:49:02.652Z,4.00
2023-12-27T19:51:29.873Z,4.07
2023-12-27T19:53:56.596Z,3.75
2023-12-27T19:56:23.601Z,3.72
2023-12-27T19:58:52.497Z,4.32
2023-12-27T20:01:19.297Z,3.30
2023-12-27T20:03:45.949Z,4.10
2023-12-27T20:06:14.505Z,4.38
2023-12-27T20:08:44.209Z,3.95
2023-12-27T20:11:14.134Z,4.82
2023-12-27T20:13:41.455Z,4.43
2023-12-27T20:16:08.170Z,4.40
2023-12-27T20:18:34.881Z,4.38
2023-12-27T20:21:02.668Z,5.40
2023-12-27T20:23:31.519Z,6.13
2023-12-27T20:25:58.552Z,7.30
2023-12-27T20:28:27.898Z,25.95
2023-12-27T20:30:54.397Z,16.83
2023-12-27T20:33:21.112Z,19.20
2023-12-27T20:35:52.313Z,8.18
2023-12-27T20:38:18.756Z,6.80
2023-12-27T20:40:45.908Z,5.55
2023-12-27T20:43:14.684Z,5.68
2023-12-27T20:45:47.037Z,4.75
2023-12-27T20:48:14.452Z,5.10
2023-12-27T20:50:43.570Z,5.60
2023-12-27T20:53:12.922Z,4.57
2023-12-27T20:55:39.369Z,4.68
2023-12-27T20:58:05.899Z,5.15
2023-12-27T21:00:32.493Z,4.95
2023-12-27T21:03:02.588Z,4.78
2023-12-27T21:05:30.195Z,4.88
2023-12-27T21:07:57.170Z,3.88
2023-12-27T21:10:23.762Z,4.50
2023-12-27T21:12:50.558Z,4.10
2023-12-27T21:15:17.200Z,4.78
2023-12-27T21:17:43.709Z,4.25
2023-12-27T21:20:11.438Z,4.07
2023-12-27T21:22:40.105Z,4.63
2023-12-27T21:25:10.099Z,4.45
2023-12-27T21:27:36.815Z,5.30
2023-12-27T21:30:03.655Z,4.45
2023-12-27T21:32:30.277Z,4.88
2023-12-27T21:34:56.954Z,4.60
2023-12-27T21:37:23.456Z,4.93
2023-12-27T21:39:50.000Z,4.75
2023-12-27T21:42:19.209Z,5.10
2023-12-27T21:44:45.857Z,4.50
2023-12-27T21:47:12.342Z,5.03
2023-12-27T21:49:38.977Z,5.70
2023-12-27T21:52:05.660Z,5.70
2023-12-27T21:54:32.443Z,6.00
2023-12-27T21:56:58.901Z,5.97
2023-12-27T21:59:25.595Z,6.00
2023-12-27T22:01:52.138Z,6.05
2023-12-27T22:04:18.937Z,5.63
2023-12-27T22:06:46.231Z,5.82
2023-12-27T22:09:17.569Z,5.80
2023-12-27T22:11:44.340Z,5.32
2023-12-27T22:14:10.780Z,5.40
2023-12-27T22:16:37.362Z,5.38
2023-12-27T22:19:04.109Z,5.88
2023-12-27T22:21:31.288Z,5.10
2023-12-27T22:23:58.343Z,4.82
2023-12-27T22:26:27.241Z,4.90
2023-12-27T22:28:58.531Z,5.40
2023-12-27T22:31:25.526Z,5.65
2023-12-27T22:33:52.475Z,5.20
2023-12-27T22:36:23.212Z,5.50
2023-12-27T22:41:23.612Z,5.82
2023-12-27T22:43:52.933Z,5.43
2023-12-27T22:46:23.062Z,5.32
2023-12-27T22:48:49.709Z,5.72
2023-12-27T22:51:16.286Z,5.82
2023-12-27T22:53:45.248Z,6.07
2023-12-27T22:56:11.818Z,6.32
2023-12-27T22:58:38.233Z,5.82
2023-12-27T23:01:05.071Z,5.55
2023-12-27T23:03:33.712Z,5.65
2023-12-27T23:06:00.222Z,5.05
2023-12-27T23:08:26.890Z,6.15
2023-12-27T23:10:56.192Z,6.10
2023-12-27T23:13:22.683Z,6.43
2023-12-27T23:15:51.579Z,6.07
2023-12-27T23:18:18.140Z,5.45
2023-12-27T23:20:44.687Z,4.57
2023-12-27T23:23:14.430Z,5.15
2023-12-27T23:25:47.045Z,6.10
2023-12-27T23:28:15.630Z,4.65
2023-12-27T23:30:44.875Z,5.63
2023-12-27T23:33:13.318Z,5.28
2023-12-27T23:35:44.828Z,4.78
2023-12-27T23:38:13.407Z,6.20
2023-12-27T23:40:39.932Z,4.97
2023-12-27T23:43:06.504Z,4.95
2023-12-27T23:45:35.498Z,4.32
2023-12-27T23:48:02.509Z,4.30
2023-12-27T23:50:31.330Z,5.07
2023-12-27T23:52:57.852Z,4.45
2023-12-27T23:55:26.678Z,4.90
2023-12-27T23:57:53.288Z,3.88
